Detroit (DTW/KDTW)

Information

Location
Detroit, MI
Local Time
20:55 / 8:55 pm
GMT Time
01:55 / 1:55 am
Gates
No FAA reported delays
METAR KDTW 250053Z 19018G23KT 10SM OVC200 10/00 A2961 RMK AO2 SLP031 T01000000
TAF KDTW 242323Z 2500/2606 20013KT P6SM SCT120 BKN200 WS015/24045KT FM250900 23008KT P6SM SCT028 BKN035 OVC100 FM251300 28010KT P6SM SCT018 OVC025 FM251700 30013G20KT P6SM BKN035 FM260400 30013KT P6SM SCT040